createdAt,value
2018-02-01T00:01:04.326Z,99022.67
2018-02-01T00:03:31.704Z,99014.72
2018-02-01T00:05:59.134Z,99021.38
2018-02-01T00:08:26.670Z,99019.63
2018-02-01T00:10:54.099Z,99015.16
2018-02-01T00:13:21.530Z,99013.44
2018-02-01T00:15:48.914Z,99021.34
2018-02-01T00:18:16.315Z,99019.77
2018-02-01T00:20:43.747Z,99012.47
2018-02-01T00:23:11.137Z,99009.52
2018-02-01T00:25:38.524Z,99017.33
2018-02-01T00:28:05.998Z,99016.05
2018-02-01T00:30:33.395Z,99009.72
2018-02-01T00:33:00.790Z,99009.67
2018-02-01T00:35:28.186Z,99009.37
2018-02-01T00:37:55.561Z,99011.39
2018-02-01T00:40:22.971Z,99017.34
2018-02-01T00:42:50.418Z,99020.19
2018-02-01T00:45:17.850Z,99020.98
2018-02-01T00:47:45.240Z,99021.42
2018-02-01T00:50:12.637Z,99020.88
2018-02-01T00:52:40.039Z,99014.16
2018-02-01T00:55:07.407Z,99008.38
2018-02-01T00:57:34.809Z,99007.49
2018-02-01T01:00:02.184Z,99008.33
2018-02-01T01:02:29.650Z,99005.11
2018-02-01T01:04:57.030Z,99007.42
2018-02-01T01:07:24.427Z,99008.99
2018-02-01T01:09:51.834Z,99010.17
2018-02-01T01:12:19.226Z,99003.55
2018-02-01T01:14:46.609Z,99005.73
2018-02-01T01:17:14.014Z,99010.94
2018-02-01T01:19:41.391Z,99014.28
2018-02-01T01:22:08.775Z,99007.66
2018-02-01T01:24:36.192Z,99009.41
2018-02-01T01:27:03.582Z,99003.92
2018-02-01T01:29:30.975Z,99006.07
2018-02-01T01:31:58.367Z,99011.37
2018-02-01T01:34:25.769Z,99013.70
2018-02-01T01:36:53.206Z,99013.30
2018-02-01T01:39:20.634Z,99019.23
2018-02-01T01:41:48.021Z,99020.25
2018-02-01T01:44:15.404Z,99025.97
2018-02-01T01:46:42.818Z,99021.49
2018-02-01T01:49:10.226Z,99019.45
2018-02-01T01:51:37.611Z,99016.77
2018-02-01T01:54:04.990Z,99013.58
2018-02-01T01:56:32.394Z,99013.75
2018-02-01T01:58:59.833Z,99015.47
2018-02-01T02:01:27.250Z,99012.01
2018-02-01T02:03:54.646Z,99012.17
2018-02-01T02:06:22.058Z,99003.58
2018-02-01T02:08:49.461Z,99009.80
2018-02-01T02:11:16.866Z,99005.33
2018-02-01T02:13:44.372Z,99002.36
2018-02-01T02:16:11.753Z,99000.66
2018-02-01T02:18:39.182Z,98993.86
2018-02-01T02:21:06.630Z,98994.89
2018-02-01T02:23:34.025Z,98992.02
2018-02-01T02:26:01.480Z,98995.00
2018-02-01T02:28:28.858Z,98993.56
2018-02-01T02:30:56.330Z,98998.62
2018-02-01T02:33:23.730Z,99000.45
2018-02-01T02:35:51.150Z,98996.35
2018-02-01T02:38:18.539Z,98997.09
2018-02-01T02:40:45.939Z,98986.64
2018-02-01T02:43:13.340Z,98985.44
2018-02-01T02:45:40.732Z,98985.53
2018-02-01T02:48:08.118Z,98988.27
2018-02-01T02:50:35.501Z,98992.94
2018-02-01T02:53:02.905Z,98983.60
2018-02-01T02:55:30.296Z,98983.05
2018-02-01T02:57:57.680Z,98979.38
2018-02-01T03:00:25.081Z,98983.27
2018-02-01T03:02:52.486Z,98980.53
2018-02-01T03:05:19.885Z,98991.78
2018-02-01T03:07:47.274Z,99002.11
2018-02-01T03:10:14.663Z,98987.99
2018-02-01T03:12:42.071Z,98992.74
2018-02-01T03:15:09.587Z,98992.97
2018-02-01T03:17:36.999Z,98989.14
2018-02-01T03:20:04.382Z,98991.75
2018-02-01T03:22:31.792Z,98998.39
2018-02-01T03:24:59.250Z,98994.19
2018-02-01T03:27:26.634Z,98995.20
2018-02-01T03:29:54.054Z,99001.78
2018-02-01T03:32:21.446Z,99004.24
2018-02-01T03:34:48.881Z,98997.34
2018-02-01T03:37:16.283Z,99006.25
2018-02-01T03:39:43.671Z,98999.36
2018-02-01T03:42:11.071Z,98998.51
2018-02-01T03:44:38.486Z,98997.94
2018-02-01T03:47:05.916Z,98996.34
2018-02-01T03:49:33.314Z,99006.66
2018-02-01T03:52:00.719Z,99002.62
2018-02-01T03:54:28.215Z,99008.66
2018-02-01T03:56:55.611Z,99014.76
2018-02-01T03:59:22.999Z,98999.18
2018-02-01T04:01:50.406Z,99008.21
2018-02-01T04:04:17.835Z,99001.75
2018-02-01T04:06:45.214Z,99002.08
2018-02-01T04:09:12.618Z,99012.05
2018-02-01T04:11:40.010Z,99012.23
2018-02-01T04:14:07.425Z,99014.94
2018-02-01T04:16:34.799Z,99005.64
2018-02-01T04:19:02.207Z,99001.92
2018-02-01T04:21:29.621Z,99004.48
2018-02-01T04:23:57.006Z,99006.91
2018-02-01T04:26:24.417Z,99000.61
2018-02-01T04:28:51.830Z,99002.87
2018-02-01T04:31:19.354Z,99001.23
2018-02-01T04:33:46.807Z,98997.23
2018-02-01T04:36:14.258Z,98998.33
2018-02-01T04:38:41.675Z,98999.09
2018-02-01T04:41:09.052Z,99006.35
2018-02-01T04:43:36.476Z,99007.91
2018-02-01T04:46:03.892Z,99003.13
2018-02-01T04:48:31.338Z,99005.23
2018-02-01T04:50:58.729Z,99000.73
2018-02-01T04:53:26.155Z,99005.02
2018-02-01T04:55:53.540Z,99004.67
2018-02-01T04:58:20.934Z,99001.77
2018-02-01T05:00:48.338Z,99013.59
2018-02-01T05:03:15.742Z,99013.59
2018-02-01T05:05:43.134Z,99011.36
2018-02-01T05:08:10.570Z,99016.27
2018-02-01T05:10:37.967Z,99015.39
2018-02-01T05:13:05.350Z,99016.31
2018-02-01T05:15:32.742Z,99013.06
2018-02-01T05:18:00.262Z,99010.59
2018-02-01T05:20:27.647Z,99014.84
2018-02-01T05:22:55.043Z,99005.02
2018-02-01T05:25:22.465Z,98996.98
2018-02-01T05:27:49.848Z,98998.09
2018-02-01T05:30:17.269Z,98993.83
2018-02-01T05:32:44.695Z,99002.63
2018-02-01T05:35:12.100Z,98997.25
2018-02-01T05:37:39.492Z,99006.73
2018-02-01T05:40:06.882Z,99000.30
2018-02-01T05:42:34.302Z,99004.60
2018-02-01T05:45:01.693Z,99000.59
2018-02-01T05:47:29.105Z,99008.41
2018-02-01T05:49:56.534Z,99000.33
2018-02-01T05:52:23.934Z,99003.54
2018-02-01T05:54:51.313Z,99006.39
2018-02-01T05:57:18.706Z,99006.96
2018-02-01T05:59:46.212Z,99011.28
2018-02-01T06:02:14.587Z,99007.30
2018-02-01T06:04:41.986Z,99012.76
2018-02-01T06:07:09.374Z,99006.27
2018-02-01T06:09:36.907Z,99002.00
2018-02-01T06:12:04.270Z,99002.95
2018-02-01T06:14:31.676Z,99008.92
2018-02-01T06:16:59.064Z,99010.25
2018-02-01T06:19:26.489Z,99010.23
2018-02-01T06:21:53.900Z,99013.66
2018-02-01T06:24:21.310Z,99016.22
2018-02-01T06:26:48.826Z,99014.03
2018-02-01T06:29:16.192Z,99011.42
2018-02-01T06:31:43.582Z,99014.33
2018-02-01T06:34:10.992Z,99017.75
2018-02-01T06:36:38.383Z,99027.63
2018-02-01T06:39:05.819Z,99016.44
2018-02-01T06:41:33.237Z,99017.87
2018-02-01T06:44:00.687Z,99017.03
2018-02-01T06:46:28.116Z,99017.98
2018-02-01T06:48:55.506Z,99024.27
2018-02-01T06:51:22.899Z,99020.59
2018-02-01T06:53:50.299Z,99016.09
2018-02-01T06:56:17.697Z,99022.61
2018-02-01T06:58:45.266Z,99032.13
2018-02-01T07:01:15.450Z,99026.11
2018-02-01T07:03:42.838Z,99027.04
2018-02-01T07:06:10.225Z,99022.00
2018-02-01T07:08:37.637Z,99019.45
2018-02-01T07:11:05.179Z,99032.77
2018-02-01T07:13:32.637Z,99028.91
2018-02-01T07:16:00.040Z,99027.88
2018-02-01T07:18:27.430Z,99025.48
2018-02-01T07:20:54.819Z,99031.66
2018-02-01T07:23:22.216Z,99028.86
2018-02-01T07:25:49.701Z,99034.53
2018-02-01T07:28:17.963Z,99033.72
2018-02-01T07:30:45.370Z,99034.23
2018-02-01T07:33:12.768Z,99037.93
2018-02-01T07:35:40.162Z,99045.91
2018-02-01T07:38:07.572Z,99040.78
2018-02-01T07:40:35.027Z,99046.44
2018-02-01T07:43:02.427Z,99046.26
2018-02-01T07:45:30.715Z,99042.02
2018-02-01T07:47:58.187Z,99045.30
2018-02-01T07:50:25.616Z,99041.73
2018-02-01T07:52:53.022Z,99042.42
2018-02-01T07:55:20.415Z,99043.38
2018-02-01T07:57:47.802Z,99039.96
2018-02-01T08:00:15.251Z,99044.39
2018-02-01T08:02:42.660Z,99048.05
2018-02-01T08:05:10.099Z,99051.11
2018-02-01T08:07:37.602Z,99050.31
2018-02-01T08:10:04.998Z,99041.84
2018-02-01T08:12:32.419Z,99042.93
2018-02-01T08:14:59.806Z,99045.84
2018-02-01T08:17:27.211Z,99053.70
2018-02-01T08:19:54.610Z,99042.95
2018-02-01T08:22:22.022Z,99045.56
2018-02-01T08:24:49.419Z,99045.77
2018-02-01T08:27:16.963Z,99044.98
2018-02-01T08:29:44.473Z,99048.10
2018-02-01T08:32:11.995Z,99044.74
2018-02-01T08:34:39.375Z,99042.77
2018-02-01T08:37:06.812Z,99047.80
2018-02-01T08:39:34.155Z,99045.30
2018-02-01T08:42:01.555Z,99040.36
2018-02-01T08:44:28.991Z,99042.31
2018-02-01T08:46:56.462Z,99044.92
2018-02-01T08:49:23.853Z,99045.91
2018-02-01T08:51:51.238Z,99053.51
2018-02-01T08:54:18.637Z,99057.48
2018-02-01T08:56:46.026Z,99059.41
2018-02-01T08:59:13.426Z,99058.17
2018-02-01T09:01:40.879Z,99057.60
2018-02-01T09:04:08.293Z,99065.92
2018-02-01T09:06:35.688Z,99063.86
2018-02-01T09:09:03.127Z,99070.88
2018-02-01T09:11:30.563Z,99070.37
2018-02-01T09:13:57.927Z,99081.60
2018-02-01T09:16:25.314Z,99078.25
2018-02-01T09:18:52.713Z,99079.24
2018-02-01T09:21:20.153Z,99087.33
2018-02-01T09:23:47.614Z,99084.73
2018-02-01T09:26:14.994Z,99075.19
2018-02-01T09:28:42.398Z,99079.31
2018-02-01T09:31:09.782Z,99080.09
2018-02-01T09:33:37.183Z,99074.59
2018-02-01T09:36:04.563Z,99089.31
2018-02-01T09:38:32.067Z,99086.51
2018-02-01T09:40:59.445Z,99089.25
2018-02-01T09:43:26.831Z,99086.18
2018-02-01T09:45:54.231Z,99092.50
2018-02-01T09:48:21.624Z,99097.52
2018-02-01T09:50:49.014Z,99096.33
2018-02-01T09:53:16.413Z,99094.81
2018-02-01T09:55:43.806Z,99099.72
2018-02-01T09:58:11.195Z,99104.92
2018-02-01T10:00:38.597Z,99107.45
2018-02-01T10:03:06.015Z,99097.99
2018-02-01T10:05:33.448Z,99101.47
2018-02-01T10:08:00.826Z,99102.66
2018-02-01T10:10:28.218Z,99099.25
2018-02-01T10:12:55.727Z,99111.70
2018-02-01T10:15:23.108Z,99094.08
2018-02-01T10:17:50.538Z,99111.59
2018-02-01T10:20:17.946Z,99109.52
2018-02-01T10:22:45.351Z,99108.19
2018-02-01T10:25:12.753Z,99114.03
2018-02-01T10:27:40.141Z,99117.75
2018-02-01T10:30:07.562Z,99123.61
2018-02-01T10:32:35.337Z,99118.18
2018-02-01T10:35:02.751Z,99112.81
2018-02-01T10:37:30.134Z,99110.45
2018-02-01T10:39:57.522Z,99105.20
2018-02-01T10:42:24.910Z,99105.14
2018-02-01T10:44:52.298Z,99104.84
2018-02-01T10:47:19.682Z,99097.36
2018-02-01T10:49:47.074Z,99100.45
2018-02-01T10:52:14.464Z,99098.41
2018-02-01T10:54:41.887Z,99096.56
2018-02-01T10:57:09.292Z,99101.69
2018-02-01T10:59:36.686Z,99093.20
2018-02-01T11:02:04.070Z,99096.36
2018-02-01T11:04:31.467Z,99096.15
2018-02-01T11:06:58.852Z,99091.50
2018-02-01T11:09:26.249Z,99101.98
2018-02-01T11:11:53.665Z,99097.77
2018-02-01T11:14:21.060Z,99094.92
2018-02-01T11:16:48.454Z,99089.30
2018-02-01T11:19:15.871Z,99098.58
2018-02-01T11:21:43.272Z,99096.55
2018-02-01T11:24:10.664Z,99104.14
2018-02-01T11:26:38.156Z,99092.33
2018-02-01T11:29:05.635Z,99101.09
2018-02-01T11:31:33.122Z,99096.41
2018-02-01T11:34:00.507Z,99100.84
2018-02-01T11:36:28.004Z,99098.55
2018-02-01T11:38:55.414Z,99097.73
2018-02-01T11:41:22.914Z,99095.63
2018-02-01T11:43:50.398Z,99097.36
2018-02-01T11:46:17.814Z,99101.53
2018-02-01T11:48:45.202Z,99095.67
2018-02-01T11:51:12.675Z,99091.80
2018-02-01T11:53:40.094Z,99090.80
2018-02-01T11:56:07.481Z,99086.75
2018-02-01T11:58:34.868Z,99085.70
2018-02-01T12:01:02.261Z,99087.28
2018-02-01T12:03:29.670Z,99085.17
2018-02-01T12:05:57.074Z,99087.02
2018-02-01T12:08:24.471Z,99091.30
2018-02-01T12:10:51.862Z,99089.98
2018-02-01T12:13:19.242Z,99090.31
2018-02-01T12:15:46.629Z,99076.81
2018-02-01T12:18:14.014Z,99079.09
2018-02-01T12:20:41.402Z,99074.26
2018-02-01T12:23:08.804Z,99072.14
2018-02-01T12:25:36.339Z,99065.48
2018-02-01T12:28:03.727Z,99067.57
2018-02-01T12:30:31.126Z,99070.54
2018-02-01T12:32:58.586Z,99054.78
2018-02-01T12:35:25.980Z,99062.04
2018-02-01T12:37:53.394Z,99062.26
2018-02-01T12:40:20.781Z,99061.00
2018-02-01T12:42:48.176Z,99071.75
2018-02-01T12:45:15.571Z,99059.86
2018-02-01T12:47:42.953Z,99064.16
2018-02-01T12:50:10.359Z,99064.39
2018-02-01T12:52:37.762Z,99060.23
2018-02-01T12:55:05.188Z,99055.07
2018-02-01T12:57:32.932Z,99049.83
2018-02-01T13:00:00.372Z,99052.79
2018-02-01T13:02:27.773Z,99042.05
2018-02-01T13:04:55.159Z,99035.98
2018-02-01T13:07:22.578Z,99047.02
2018-02-01T13:09:49.998Z,99042.86
2018-02-01T13:12:17.375Z,99042.13
2018-02-01T13:14:44.858Z,99047.72
2018-02-01T13:17:12.246Z,99047.55
2018-02-01T13:19:39.732Z,99048.22
2018-02-01T13:22:07.087Z,99058.06
2018-02-01T13:24:34.466Z,99057.80
2018-02-01T13:27:01.865Z,99058.94
2018-02-01T13:29:29.305Z,99062.28
2018-02-01T13:31:56.727Z,99066.00
2018-02-01T13:34:24.147Z,99056.40
2018-02-01T13:36:51.575Z,99065.66
2018-02-01T13:39:20.636Z,99067.13
2018-02-01T13:41:48.145Z,99072.14
2018-02-01T13:44:16.341Z,99065.50
2018-02-01T13:46:43.763Z,99062.50
2018-02-01T13:49:11.192Z,99065.31
2018-02-01T13:51:38.614Z,99072.98
2018-02-01T13:54:06.050Z,99069.63
2018-02-01T13:56:33.494Z,99073.19
2018-02-01T13:59:00.951Z,99071.65
2018-02-01T14:01:28.360Z,99074.03
2018-02-01T14:03:55.743Z,99068.34
2018-02-01T14:06:23.202Z,99071.44
2018-02-01T14:08:50.611Z,99078.69
2018-02-01T14:11:18.060Z,99075.77
2018-02-01T14:13:45.449Z,99072.70
2018-02-01T14:16:12.899Z,99077.81
2018-02-01T14:18:40.407Z,99079.17
2018-02-01T14:21:07.893Z,99077.81
2018-02-01T14:23:35.270Z,99077.59
2018-02-01T14:26:02.706Z,99068.23
2018-02-01T14:28:30.103Z,99077.50
2018-02-01T14:30:57.542Z,99082.41
2018-02-01T14:33:24.998Z,99079.14
2018-02-01T14:35:52.409Z,99081.05
2018-02-01T14:38:19.777Z,99077.16
2018-02-01T14:40:47.173Z,99074.51
2018-02-01T14:43:14.578Z,99075.59
2018-02-01T14:45:41.950Z,99085.19
2018-02-01T14:48:09.340Z,99078.69
2018-02-01T14:50:36.743Z,99079.02
2018-02-01T14:53:04.138Z,99085.95
2018-02-01T14:55:31.630Z,99079.36
2018-02-01T14:57:59.025Z,99077.98
2018-02-01T15:00:26.418Z,99082.81
2018-02-01T15:02:53.798Z,99076.33
2018-02-01T15:05:21.202Z,99077.61
2018-02-01T15:07:48.651Z,99083.44
2018-02-01T15:10:16.076Z,99085.08
2018-02-01T15:12:43.466Z,99085.11
2018-02-01T15:15:10.852Z,99090.42
2018-02-01T15:17:38.252Z,99087.06
2018-02-01T15:20:05.634Z,99084.53
2018-02-01T15:22:33.039Z,99086.51
2018-02-01T15:25:00.447Z,99084.33
2018-02-01T15:27:27.838Z,99089.23
2018-02-01T15:29:55.223Z,99084.94
2018-02-01T15:32:22.619Z,99083.49
2018-02-01T15:34:50.004Z,99087.17
2018-02-01T15:37:17.394Z,99089.78
2018-02-01T15:39:45.736Z,99077.61
2018-02-01T15:42:13.122Z,99083.41
2018-02-01T15:44:40.515Z,99088.20
2018-02-01T15:47:07.923Z,99085.41
2018-02-01T15:49:35.297Z,99092.72
2018-02-01T15:52:02.722Z,99082.86
2018-02-01T15:54:30.169Z,99082.80
2018-02-01T15:56:57.572Z,99085.21
2018-02-01T15:59:24.950Z,99078.44
2018-02-01T16:01:52.359Z,99073.74
2018-02-01T16:04:19.761Z,99077.23
2018-02-01T16:06:47.524Z,99075.02
2018-02-01T16:09:14.978Z,99080.45
2018-02-01T16:11:42.372Z,99080.25
2018-02-01T16:14:09.771Z,99078.87
2018-02-01T16:16:37.167Z,99084.52
2018-02-01T16:19:04.589Z,99080.94
2018-02-01T16:21:31.978Z,99081.48
2018-02-01T16:23:59.387Z,99073.41
2018-02-01T16:26:26.841Z,99077.23
2018-02-01T16:28:54.222Z,99073.80
2018-02-01T16:31:21.627Z,99073.17
2018-02-01T16:33:49.010Z,99080.29
2018-02-01T16:36:17.227Z,99080.02
2018-02-01T16:38:44.730Z,99083.34
2018-02-01T16:41:12.126Z,99085.16
2018-02-01T16:43:39.539Z,99079.88
2018-02-01T16:46:06.958Z,99086.80
2018-02-01T16:48:34.354Z,99088.66
2018-02-01T16:51:01.978Z,99086.86
2018-02-01T16:53:29.470Z,99088.73
2018-02-01T16:55:56.857Z,99098.02
2018-02-01T16:58:24.263Z,99092.42
2018-02-01T17:00:51.660Z,99098.55
2018-02-01T17:03:19.171Z,99097.08
2018-02-01T17:05:46.583Z,99099.42
2018-02-01T17:08:13.972Z,99101.01
2018-02-01T17:10:41.354Z,99102.48
2018-02-01T17:13:08.774Z,99099.03
2018-02-01T17:15:36.161Z,99104.88
2018-02-01T17:18:03.592Z,99109.22
2018-02-01T17:20:31.002Z,99112.17
2018-02-01T17:22:58.398Z,99113.98
2018-02-01T17:25:25.781Z,99114.03
2018-02-01T17:27:53.225Z,99108.95
2018-02-01T17:30:20.598Z,99107.64
2018-02-01T17:32:48.067Z,99113.62
2018-02-01T17:35:15.457Z,99114.88
2018-02-01T17:37:42.862Z,99111.44
2018-02-01T17:40:10.270Z,99111.91
2018-02-01T17:42:37.676Z,99111.69
2018-02-01T17:45:05.068Z,99117.95
2018-02-01T17:47:32.519Z,99118.64
2018-02-01T17:50:00.009Z,99122.00
2018-02-01T17:52:27.431Z,99121.81
2018-02-01T17:54:54.846Z,99120.59
2018-02-01T17:57:22.238Z,99124.37
2018-02-01T17:59:49.624Z,99129.86
2018-02-01T18:02:17.018Z,99132.75
2018-02-01T18:04:44.416Z,99137.30
2018-02-01T18:07:11.854Z,99136.28
2018-02-01T18:09:39.256Z,99123.80
2018-02-01T18:12:06.813Z,99131.67
2018-02-01T18:14:34.239Z,99131.31
2018-02-01T18:17:01.728Z,99133.78
2018-02-01T18:19:29.114Z,99130.44
2018-02-01T18:21:56.535Z,99136.05
2018-02-01T18:24:23.919Z,99143.77
2018-02-01T18:26:51.342Z,99147.86
2018-02-01T18:29:18.727Z,99146.68
2018-02-01T18:31:46.138Z,99147.57
2018-02-01T18:34:13.534Z,99141.73
2018-02-01T18:36:41.791Z,99145.59
2018-02-01T18:39:09.182Z,99155.10
2018-02-01T18:41:36.685Z,99150.62
2018-02-01T18:44:04.142Z,99151.17
2018-02-01T18:46:31.538Z,99160.21
2018-02-01T18:48:58.954Z,99153.06
2018-02-01T18:51:26.346Z,99158.22
2018-02-01T18:53:53.789Z,99161.73
2018-02-01T18:56:21.179Z,99161.83
2018-02-01T18:58:48.594Z,99164.88
2018-02-01T19:01:15.987Z,99160.47
2018-02-01T19:03:43.454Z,99164.84
2018-02-01T19:06:10.954Z,99174.83
2018-02-01T19:08:38.363Z,99173.42
2018-02-01T19:11:05.759Z,99164.95
2018-02-01T19:13:33.151Z,99167.77
2018-02-01T19:16:00.546Z,99160.25
2018-02-01T19:18:27.966Z,99171.84
2018-02-01T19:20:55.423Z,99169.77
2018-02-01T19:23:22.743Z,99170.75
2018-02-01T19:25:50.134Z,99161.66
2018-02-01T19:28:17.527Z,99159.20
2018-02-01T19:30:44.938Z,99153.34
2018-02-01T19:33:12.334Z,99157.67
2018-02-01T19:35:39.739Z,99156.63
2018-02-01T19:38:07.138Z,99167.59
2018-02-01T19:40:34.559Z,99168.53
2018-02-01T19:43:01.969Z,99163.96
2018-02-01T19:45:29.366Z,99174.00
2018-02-01T19:47:56.771Z,99166.20
2018-02-01T19:50:24.182Z,99173.00
2018-02-01T19:52:51.594Z,99168.92
2018-02-01T19:55:18.987Z,99171.66
2018-02-01T19:57:46.423Z,99173.28
2018-02-01T20:00:13.821Z,99163.98
2018-02-01T20:02:41.211Z,99175.66
2018-02-01T20:05:08.599Z,99170.57
2018-02-01T20:07:35.992Z,99160.44
2018-02-01T20:10:03.389Z,99169.21
2018-02-01T20:12:30.795Z,99167.34
2018-02-01T20:14:58.233Z,99160.56
2018-02-01T20:17:25.654Z,99165.73
2018-02-01T20:19:53.040Z,99159.34
2018-02-01T20:22:20.434Z,99164.61
2018-02-01T20:24:47.911Z,99166.66
2018-02-01T20:27:15.314Z,99166.36
2018-02-01T20:29:42.711Z,99176.30
2018-02-01T20:32:10.101Z,99165.79
2018-02-01T20:34:37.504Z,99171.27
2018-02-01T20:37:04.914Z,99173.72
2018-02-01T20:39:32.323Z,99177.75
2018-02-01T20:41:59.714Z,99188.79
2018-02-01T20:44:27.380Z,99187.78
2018-02-01T20:46:55.713Z,99188.38
2018-02-01T20:49:23.090Z,99186.50
2018-02-01T20:51:50.507Z,99179.41
2018-02-01T20:54:17.916Z,99187.03
2018-02-01T20:56:45.293Z,99181.10
2018-02-01T20:59:12.706Z,99183.73
2018-02-01T21:01:40.306Z,99190.08
2018-02-01T21:04:07.702Z,99184.26
2018-02-01T21:06:35.094Z,99187.33
2018-02-01T21:09:02.514Z,99183.31
2018-02-01T21:11:29.903Z,99182.41
2018-02-01T21:13:57.302Z,99184.42
2018-02-01T21:16:24.690Z,99185.44
2018-02-01T21:18:52.131Z,99188.22
2018-02-01T21:21:19.522Z,99188.01
2018-02-01T21:23:46.956Z,99179.20
2018-02-01T21:26:14.369Z,99176.76
2018-02-01T21:28:41.876Z,99175.69
2018-02-01T21:31:09.318Z,99176.31
2018-02-01T21:33:36.715Z,99177.20
2018-02-01T21:36:04.114Z,99189.38
2018-02-01T21:38:31.526Z,99182.60
2018-02-01T21:40:58.918Z,99190.40
2018-02-01T21:43:26.315Z,99185.70
2018-02-01T21:45:53.713Z,99193.95
2018-02-01T21:48:21.112Z,99194.36
2018-02-01T21:50:48.502Z,99191.73
2018-02-01T21:53:15.931Z,99196.97
2018-02-01T21:55:43.332Z,99192.45
2018-02-01T21:58:10.722Z,99203.53
2018-02-01T22:00:38.130Z,99190.20
2018-02-01T22:03:05.533Z,99191.37
2018-02-01T22:05:32.988Z,99195.63
2018-02-01T22:08:00.448Z,99197.14
2018-02-01T22:10:27.831Z,99195.48
2018-02-01T22:12:55.298Z,99196.52
2018-02-01T22:15:22.688Z,99199.54
2018-02-01T22:17:50.102Z,99204.28
2018-02-01T22:20:17.506Z,99204.34
2018-02-01T22:22:44.917Z,99204.83
2018-02-01T22:25:12.334Z,99207.85
2018-02-01T22:27:39.799Z,99197.47
2018-02-01T22:30:07.352Z,99199.37
2018-02-01T22:32:34.745Z,99197.35
2018-02-01T22:35:02.143Z,99193.27
2018-02-01T22:37:29.530Z,99189.11
2018-02-01T22:39:56.932Z,99196.17
2018-02-01T22:42:24.335Z,99186.22
2018-02-01T22:44:51.732Z,99191.13
2018-02-01T22:47:19.170Z,99195.70
2018-02-01T22:49:46.714Z,99187.58
2018-02-01T22:52:14.114Z,99181.77
2018-02-01T22:54:41.497Z,99193.63
2018-02-01T22:57:08.878Z,99192.13
2018-02-01T22:59:36.297Z,99195.89
2018-02-01T23:02:03.686Z,99189.42
2018-02-01T23:04:31.085Z,99190.84
2018-02-01T23:06:58.478Z,99185.69
2018-02-01T23:09:25.878Z,99186.03
2018-02-01T23:11:53.289Z,99189.70
2018-02-01T23:14:20.670Z,99194.22
2018-02-01T23:16:48.099Z,99188.39
2018-02-01T23:19:15.522Z,99191.17
2018-02-01T23:21:42.912Z,99190.60
2018-02-01T23:24:10.308Z,99192.77
2018-02-01T23:26:37.694Z,99198.23
2018-02-01T23:29:05.197Z,99197.72
2018-02-01T23:31:32.617Z,99187.66
2018-02-01T23:34:00.015Z,99185.30
2018-02-01T23:36:27.403Z,99181.46
2018-02-01T23:38:54.800Z,99180.23
2018-02-01T23:41:22.186Z,99187.04
2018-02-01T23:43:49.612Z,99188.68
2018-02-01T23:46:17.071Z,99190.30
2018-02-01T23:48:44.540Z,99195.00
2018-02-01T23:51:11.924Z,99193.73
2018-02-01T23:53:39.324Z,99183.95
2018-02-01T23:56:06.711Z,99175.47
2018-02-01T23:58:34.127Z,99181.24
